createdAt,value
2022-12-13T00:02:22.410Z,100989.75
2022-12-13T00:05:25.037Z,100980.22
2022-12-13T00:08:27.668Z,100973.22
2022-12-13T00:11:30.318Z,100981.91
2022-12-13T00:14:33.505Z,100974.91
2022-12-13T00:17:37.455Z,100972.19
2022-12-13T00:20:41.185Z,100973.84
2022-12-13T00:23:43.760Z,100975.69
2022-12-13T00:26:46.356Z,100976.59
2022-12-13T00:29:48.981Z,100978.22
2022-12-13T00:32:52.916Z,100972.13
2022-12-13T00:35:55.904Z,100963.53
2022-12-13T00:39:01.606Z,100968.66
2022-12-13T00:42:04.257Z,100969.38
2022-12-13T00:45:07.689Z,100971.97
2022-12-13T00:48:11.716Z,100969.53
2022-12-13T00:51:14.334Z,100959.03
2022-12-13T00:54:17.541Z,100966.06
2022-12-13T00:57:21.133Z,100958.97
2022-12-13T01:00:25.493Z,100957.50
2022-12-13T01:03:29.467Z,100963.44
2022-12-13T01:06:35.046Z,100958.03
2022-12-13T01:09:39.474Z,100952.94
2022-12-13T01:12:42.068Z,100948.66
2022-12-13T01:15:45.815Z,100952.88
2022-12-13T01:18:49.761Z,100952.19
2022-12-13T01:21:55.816Z,100946.13
2022-12-13T01:24:58.430Z,100940.84
2022-12-13T01:28:01.031Z,100942.66
2022-12-13T01:31:05.968Z,100940.06
2022-12-13T01:34:11.255Z,100941.88
2022-12-13T01:37:13.842Z,100946.84
2022-12-13T01:40:16.696Z,100953.84
2022-12-13T01:43:19.284Z,100947.88
2022-12-13T01:46:22.522Z,100942.66
2022-12-13T01:49:26.468Z,100941.56
2022-12-13T01:52:31.392Z,100936.50
2022-12-13T01:55:41.616Z,100932.28
2022-12-13T01:58:46.167Z,100935.50
2022-12-13T02:01:50.563Z,100924.41
2022-12-13T02:05:00.197Z,100936.28
2022-12-13T02:08:04.397Z,100943.13
2022-12-13T02:11:08.477Z,100942.28
2022-12-13T02:14:13.202Z,100932.75
2022-12-13T02:17:24.766Z,100935.25
2022-12-13T02:20:47.349Z,100941.41
2022-12-13T02:24:23.265Z,100925.81
2022-12-13T02:28:00.779Z,100927.66
2022-12-13T02:31:12.575Z,100920.78
2022-12-13T02:34:23.466Z,100912.84
2022-12-13T02:37:31.700Z,100910.22
2022-12-13T02:40:40.198Z,100909.59
2022-12-13T02:43:48.943Z,100908.63
2022-12-13T02:46:56.269Z,100906.69
2022-12-13T02:50:02.699Z,100911.09
2022-12-13T02:53:07.059Z,100911.06
2022-12-13T02:56:09.704Z,100911.91
2022-12-13T02:59:14.966Z,100906.91
2022-12-13T03:02:31.446Z,100909.44
2022-12-13T03:06:00.741Z,100910.00
2022-12-13T03:09:24.555Z,100914.38
2022-12-13T03:12:54.038Z,100905.81
2022-12-13T03:15:58.802Z,100898.03
2022-12-13T03:19:05.775Z,100898.81
2022-12-13T03:22:08.379Z,100896.94
2022-12-13T03:25:10.989Z,100900.22
2022-12-13T03:28:13.675Z,100906.38
2022-12-13T03:31:16.395Z,100899.44
2022-12-13T03:34:22.309Z,100896.72
2022-12-13T03:37:25.748Z,100897.59
2022-12-13T03:40:29.344Z,100902.75
2022-12-13T03:43:32.144Z,100901.16
2022-12-13T03:46:34.848Z,100901.16
2022-12-13T03:49:38.952Z,100901.00
2022-12-13T03:52:41.652Z,100899.50
2022-12-13T03:55:44.491Z,100887.38
2022-12-13T03:58:47.088Z,100889.81
2022-12-13T04:01:49.677Z,100883.91
2022-12-13T04:04:53.641Z,100884.00
2022-12-13T04:08:00.807Z,100885.75
2022-12-13T04:11:25.565Z,100877.78
2022-12-13T04:14:27.176Z,100876.13
2022-12-13T04:17:29.770Z,100876.91
2022-12-13T04:20:33.706Z,100874.06
2022-12-13T04:23:36.309Z,100872.53
2022-12-13T04:26:38.932Z,100873.53
2022-12-13T04:29:41.577Z,100865.81
2022-12-13T04:32:44.215Z,100869.16
2022-12-13T04:35:48.200Z,100877.06
2022-12-13T04:38:50.798Z,100863.22
2022-12-13T04:41:54.134Z,100865.81
2022-12-13T04:44:56.722Z,100861.41
2022-12-13T04:47:59.339Z,100863.94
2022-12-13T04:51:03.588Z,100862.50
2022-12-13T04:54:13.101Z,100873.06
2022-12-13T04:57:27.007Z,100877.38
2022-12-13T05:00:29.604Z,100875.84
2022-12-13T05:03:32.199Z,100878.53
2022-12-13T05:06:36.178Z,100877.72
2022-12-13T05:09:38.858Z,100873.53
2022-12-13T05:12:41.485Z,100863.19
2022-12-13T05:15:44.080Z,100867.53
2022-12-13T05:18:46.818Z,100868.50
2022-12-13T05:21:50.976Z,100866.00
2022-12-13T05:24:53.616Z,100857.41
2022-12-13T05:27:57.270Z,100867.81
2022-12-13T05:31:23.227Z,100850.53
2022-12-13T05:34:26.655Z,100855.81
2022-12-13T05:37:30.585Z,100857.56
2022-12-13T05:40:37.525Z,100863.69
2022-12-13T05:43:43.073Z,100869.84
2022-12-13T05:46:46.074Z,100876.75
2022-12-13T05:49:48.638Z,100874.03
2022-12-13T05:52:52.650Z,100869.69
2022-12-13T05:55:55.286Z,100875.78
2022-12-13T05:58:58.012Z,100872.50
2022-12-13T06:02:00.628Z,100869.03
2022-12-13T06:05:03.263Z,100863.00
2022-12-13T06:08:24.552Z,100861.34
2022-12-13T06:11:31.085Z,100862.22
2022-12-13T06:14:34.807Z,100859.66
2022-12-13T06:17:37.815Z,100858.81
2022-12-13T06:20:40.393Z,100864.88
2022-12-13T06:23:44.349Z,100867.47
2022-12-13T06:26:47.321Z,100866.63
2022-12-13T06:29:49.904Z,100866.63
2022-12-13T06:32:52.501Z,100873.63
2022-12-13T06:35:57.725Z,100865.84
2022-12-13T06:39:04.537Z,100858.09
2022-12-13T06:42:08.361Z,100860.63
2022-12-13T06:45:11.251Z,100849.38
2022-12-13T06:48:18.746Z,100859.03
2022-12-13T06:51:32.471Z,100863.34
2022-12-13T06:54:37.272Z,100862.44
2022-12-13T06:57:40.842Z,100858.16
2022-12-13T07:00:44.356Z,100864.25
2022-12-13T07:03:51.902Z,100866.91
2022-12-13T07:06:54.547Z,100873.84
2022-12-13T07:09:58.517Z,100871.22
2022-12-13T07:13:01.117Z,100873.78
2022-12-13T07:16:03.761Z,100873.84
2022-12-13T07:19:06.996Z,100875.59
2022-12-13T07:22:25.818Z,100870.38
2022-12-13T07:25:29.999Z,100874.72
2022-12-13T07:28:33.938Z,100877.38
2022-12-13T07:31:37.531Z,100887.84
2022-12-13T07:34:40.209Z,100879.09
2022-12-13T07:37:43.369Z,100880.84
2022-12-13T07:40:47.328Z,100880.91
2022-12-13T07:43:55.273Z,100884.34
2022-12-13T07:46:58.523Z,100885.25
2022-12-13T07:50:01.688Z,100881.72
2022-12-13T07:53:06.588Z,100886.06
2022-12-13T07:56:12.453Z,100889.50
2022-12-13T07:59:16.247Z,100893.00
2022-12-13T08:02:31.216Z,100889.53
2022-12-13T08:05:38.569Z,100887.84
2022-12-13T08:08:41.717Z,100887.00
2022-12-13T08:11:45.698Z,100890.44
2022-12-13T08:14:48.273Z,100895.69
2022-12-13T08:17:57.090Z,100906.09
2022-12-13T08:21:00.365Z,100903.44
2022-12-13T08:24:02.948Z,100905.28
2022-12-13T08:27:06.915Z,100903.59
2022-12-13T08:30:10.656Z,100898.34
2022-12-13T08:33:13.372Z,100894.00
2022-12-13T08:36:17.726Z,100896.63
2022-12-13T08:39:20.298Z,100893.19
2022-12-13T08:42:25.165Z,100896.63
2022-12-13T08:45:27.995Z,100889.69
2022-12-13T08:48:31.198Z,100894.00
2022-12-13T08:51:35.495Z,100890.50
2022-12-13T08:54:38.407Z,100887.94
2022-12-13T08:57:43.844Z,100880.97
2022-12-13T09:00:47.021Z,100877.50
2022-12-13T09:03:49.738Z,100885.34
2022-12-13T09:06:52.312Z,100886.22
2022-12-13T09:09:55.326Z,100888.84
2022-12-13T09:13:01.798Z,100889.75
2022-12-13T09:16:13.846Z,100892.34
2022-12-13T09:19:24.919Z,100887.97
2022-12-13T09:22:32.990Z,100881.88
2022-12-13T09:25:37.371Z,100878.41
2022-12-13T09:28:42.399Z,100872.31
2022-12-13T09:31:52.648Z,100874.06
2022-12-13T09:34:56.071Z,100871.47
2022-12-13T09:37:58.636Z,100872.34
2022-12-13T09:41:10.273Z,100870.59
2022-12-13T09:44:32.634Z,100873.22
2022-12-13T09:47:47.195Z,100873.22
2022-12-13T09:50:58.248Z,100868.03
2022-12-13T09:54:19.497Z,100876.72
2022-12-13T09:57:31.892Z,100868.84
2022-12-13T10:00:37.987Z,100879.34
2022-12-13T10:03:45.088Z,100877.56
2022-12-13T10:06:47.965Z,100879.19
2022-12-13T10:09:56.865Z,100878.38
2022-12-13T10:13:09.384Z,100873.81
2022-12-13T10:16:23.425Z,100872.91
2022-12-13T10:19:34.602Z,100873.81
2022-12-13T10:22:37.207Z,100879.13
2022-12-13T10:25:50.858Z,100878.28
2022-12-13T10:29:04.231Z,100873.19
2022-12-13T10:32:14.281Z,100870.56
2022-12-13T10:35:25.554Z,100873.22
2022-12-13T10:38:32.040Z,100876.72
2022-12-13T10:41:36.998Z,100868.91
2022-12-13T10:44:39.677Z,100857.59
2022-12-13T10:47:45.613Z,100861.94
2022-12-13T10:50:58.939Z,100854.94
2022-12-13T10:54:02.173Z,100854.09
2022-12-13T10:57:05.762Z,100848.00
2022-12-13T11:00:32.281Z,100844.44
2022-12-13T11:03:36.317Z,100843.56
2022-12-13T11:06:43.320Z,100842.66
2022-12-13T11:09:52.694Z,100840.13
2022-12-13T11:13:01.827Z,100835.72
2022-12-13T11:16:06.564Z,100838.31
2022-12-13T11:19:21.753Z,100837.44
2022-12-13T11:22:30.863Z,100837.44
2022-12-13T11:25:40.027Z,100834.78
2022-12-13T11:29:07.197Z,100822.66
2022-12-13T11:32:22.735Z,100820.88
2022-12-13T11:35:33.871Z,100814.88
2022-12-13T11:38:56.464Z,100818.34
2022-12-13T11:42:07.199Z,100807.91
2022-12-13T11:45:22.773Z,100810.47
2022-12-13T11:48:36.322Z,100799.16
2022-12-13T11:51:45.254Z,100793.97
2022-12-13T11:54:55.508Z,100795.69
2022-12-13T11:58:06.032Z,100791.38
2022-12-13T12:01:13.533Z,100791.31
2022-12-13T12:04:22.618Z,100788.72
2022-12-13T12:07:34.183Z,100787.84
2022-12-13T12:10:45.724Z,100788.66
2022-12-13T12:13:55.150Z,100788.69
2022-12-13T12:16:59.736Z,100785.22
2022-12-13T12:20:03.307Z,100788.56
2022-12-13T12:23:18.069Z,100778.31
2022-12-13T12:26:27.282Z,100781.72
2022-12-13T12:30:04.190Z,100784.19
2022-12-13T12:33:18.549Z,100783.25
2022-12-13T12:36:44.978Z,100774.56
2022-12-13T12:40:04.509Z,100775.41
2022-12-13T12:43:16.339Z,100774.47
2022-12-13T12:46:58.953Z,100771.09
2022-12-13T12:50:17.871Z,100768.34
2022-12-13T12:53:38.601Z,100766.63
2022-12-13T12:56:51.759Z,100763.13
2022-12-13T13:00:03.958Z,100757.91
2022-12-13T13:03:22.004Z,100759.75
2022-12-13T13:06:30.349Z,100750.88
2022-12-13T13:09:34.238Z,100749.88
2022-12-13T13:12:43.212Z,100751.66
2022-12-13T13:15:56.073Z,100754.53
2022-12-13T13:18:59.240Z,100747.28
2022-12-13T13:22:03.850Z,100747.22
2022-12-13T13:25:31.818Z,100746.41
2022-12-13T13:28:35.761Z,100742.97
2022-12-13T13:32:01.122Z,100739.31
2022-12-13T13:35:53.432Z,100737.63
2022-12-13T13:39:01.716Z,100735.03
2022-12-13T13:42:18.381Z,100742.91
2022-12-13T13:45:24.353Z,100730.50
2022-12-13T13:48:46.209Z,100734.16
2022-12-13T13:52:24.923Z,100737.41
2022-12-13T13:55:49.785Z,100742.66
2022-12-13T13:59:31.966Z,100742.91
2022-12-13T14:03:21.843Z,100744.84
2022-12-13T14:07:05.755Z,100760.56
2022-12-13T14:10:23.214Z,100757.84
2022-12-13T14:14:00.325Z,100744.09
2022-12-13T14:17:50.722Z,100753.41
2022-12-13T14:21:03.300Z,100738.69
2022-12-13T14:24:26.842Z,100739.44
2022-12-13T14:27:40.789Z,100732.56
2022-12-13T14:30:47.813Z,100745.69
2022-12-13T14:34:02.933Z,100742.13
2022-12-13T14:37:20.677Z,100734.25
2022-12-13T14:40:30.335Z,100731.69
2022-12-13T14:43:35.464Z,100730.72
2022-12-13T14:46:38.192Z,100728.94
2022-12-13T14:49:48.790Z,100722.94
2022-12-13T14:52:53.684Z,100725.53
2022-12-13T14:56:11.022Z,100730.09
2022-12-13T14:59:33.208Z,100724.75
2022-12-13T15:02:35.839Z,100719.59
2022-12-13T15:05:45.723Z,100711.66
2022-12-13T15:08:55.180Z,100700.28
2022-12-13T15:12:15.398Z,100704.66
2022-12-13T15:15:27.946Z,100711.94
2022-12-13T15:18:31.084Z,100707.50
2022-12-13T15:21:33.716Z,100709.13
2022-12-13T15:24:41.544Z,100706.47
2022-12-13T15:27:48.243Z,100708.31
2022-12-13T15:30:52.028Z,100696.88
2022-12-13T15:34:00.892Z,100697.84
2022-12-13T15:37:07.659Z,100694.34
2022-12-13T15:40:31.708Z,100698.78
2022-12-13T15:43:37.680Z,100703.13
2022-12-13T15:46:40.338Z,100705.22
2022-12-13T15:49:50.208Z,100708.56
2022-12-13T15:53:01.605Z,100713.78
2022-12-13T15:56:29.558Z,100709.34
2022-12-13T15:59:34.127Z,100711.09
2022-12-13T16:02:38.114Z,100708.50
2022-12-13T16:05:49.725Z,100708.63
2022-12-13T16:08:53.756Z,100701.59
2022-12-13T16:12:00.652Z,100698.03
2022-12-13T16:15:28.874Z,100691.97
2022-12-13T16:18:34.535Z,100699.81
2022-12-13T16:21:37.213Z,100695.47
2022-12-13T16:24:39.837Z,100694.59
2022-12-13T16:27:44.125Z,100702.44
2022-12-13T16:31:03.046Z,100703.34
2022-12-13T16:34:06.987Z,100691.22
2022-12-13T16:37:25.486Z,100703.41
2022-12-13T16:40:31.684Z,100696.56
2022-12-13T16:43:38.730Z,100712.28
2022-12-13T16:47:12.705Z,100714.78
2022-12-13T16:50:10.725Z,100710.38
2022-12-13T16:53:17.298Z,100713.03
2022-12-13T16:56:21.647Z,100708.66
2022-12-13T16:59:27.826Z,100701.63
2022-12-13T17:02:30.448Z,100696.38
2022-12-13T17:05:34.909Z,100706.81
2022-12-13T17:08:37.750Z,100693.88
2022-12-13T17:11:40.323Z,100701.59
2022-12-13T17:14:44.257Z,100689.44
2022-12-13T17:17:48.203Z,100691.16
2022-12-13T17:20:58.122Z,100685.19
2022-12-13T17:24:02.844Z,100684.16
2022-12-13T17:27:05.799Z,100677.25
2022-12-13T17:30:15.037Z,100677.22
2022-12-13T17:33:17.656Z,100684.19
2022-12-13T17:36:20.240Z,100674.66
2022-12-13T17:39:22.830Z,100676.34
2022-12-13T17:42:25.803Z,100676.31
2022-12-13T17:45:29.738Z,100663.25
2022-12-13T17:48:39.799Z,100666.66
2022-12-13T17:51:43.717Z,100662.34
2022-12-13T17:54:54.063Z,100663.22
2022-12-13T17:57:59.807Z,100662.34
2022-12-13T18:01:16.747Z,100661.50
2022-12-13T18:04:19.845Z,100668.53
2022-12-13T18:07:22.572Z,100664.22
2022-12-13T18:10:29.760Z,100664.22
2022-12-13T18:13:32.973Z,100663.41
2022-12-13T18:16:38.944Z,100664.22
2022-12-13T18:19:41.908Z,100656.50
2022-12-13T18:22:51.193Z,100667.00
2022-12-13T18:26:00.484Z,100648.75
2022-12-13T18:29:03.403Z,100642.56
2022-12-13T18:32:07.454Z,100637.34
2022-12-13T18:35:10.758Z,100637.38
2022-12-13T18:38:13.535Z,100635.63
2022-12-13T18:41:18.090Z,100637.34
2022-12-13T18:44:20.729Z,100634.75
2022-12-13T18:47:26.697Z,100633.91
2022-12-13T18:50:29.507Z,100633.03
2022-12-13T18:53:33.764Z,100634.75
2022-12-13T18:56:36.357Z,100632.19
2022-12-13T18:59:38.977Z,100633.97
2022-12-13T19:02:42.987Z,100638.34
2022-12-13T19:05:45.644Z,100638.31
2022-12-13T19:08:49.494Z,100648.75
2022-12-13T19:11:52.068Z,100652.22
2022-12-13T19:14:55.288Z,100653.13
2022-12-13T19:17:59.276Z,100655.72
2022-12-13T19:21:02.184Z,100656.63
2022-12-13T19:24:05.714Z,100651.41
2022-12-13T19:27:08.322Z,100642.72
2022-12-13T19:30:11.714Z,100652.25
2022-12-13T19:33:17.219Z,100646.16
2022-12-13T19:36:19.787Z,100649.66
2022-12-13T19:39:22.472Z,100641.81
2022-12-13T19:42:25.083Z,100641.84
2022-12-13T19:45:27.675Z,100634.00
2022-12-13T19:48:31.609Z,100645.31
2022-12-13T19:51:39.229Z,100641.00
2022-12-13T19:54:42.498Z,100637.50
2022-12-13T19:57:45.488Z,100634.03
2022-12-13T20:00:48.166Z,100633.16
2022-12-13T20:03:52.154Z,100623.59
2022-12-13T20:06:54.755Z,100621.84
2022-12-13T20:09:57.375Z,100626.22
2022-12-13T20:12:59.954Z,100627.09
2022-12-13T20:16:03.063Z,100626.19
2022-12-13T20:19:07.020Z,100629.63
2022-12-13T20:22:09.588Z,100616.66
2022-12-13T20:25:12.528Z,100621.88
2022-12-13T20:28:16.526Z,100609.69
2022-12-13T20:31:21.986Z,100609.69
2022-12-13T20:34:25.980Z,100614.91
2022-12-13T20:37:28.599Z,100614.91
2022-12-13T20:40:31.192Z,100607.09
2022-12-13T20:43:34.659Z,100604.44
2022-12-13T20:46:37.427Z,100601.88
2022-12-13T20:49:41.414Z,100605.34
2022-12-13T20:52:49.137Z,100601.00
2022-12-13T20:55:57.576Z,100601.84
2022-12-13T20:59:00.186Z,100594.03
2022-12-13T21:02:02.848Z,100590.56
2022-12-13T21:05:07.533Z,100588.78
2022-12-13T21:08:27.689Z,100587.03
2022-12-13T21:11:32.048Z,100586.16
2022-12-13T21:14:35.037Z,100583.56
2022-12-13T21:17:39.030Z,100574.03
2022-12-13T21:20:42.965Z,100574.84
2022-12-13T21:23:45.556Z,100567.03
2022-12-13T21:26:48.320Z,100567.91
2022-12-13T21:29:50.898Z,100565.28
2022-12-13T21:32:53.493Z,100560.94
2022-12-13T21:35:57.813Z,100561.78
2022-12-13T21:39:01.561Z,100548.81
2022-12-13T21:42:04.191Z,100560.97
2022-12-13T21:45:07.902Z,100558.31
2022-12-13T21:48:10.930Z,100559.22
2022-12-13T21:51:16.661Z,100554.88
2022-12-13T21:54:19.371Z,100552.25
2022-12-13T21:57:39.656Z,100554.00
2022-12-13T22:00:42.330Z,100541.84
2022-12-13T22:03:44.990Z,100548.78
2022-12-13T22:06:48.937Z,100546.19
2022-12-13T22:09:52.435Z,100540.09
2022-12-13T22:12:57.117Z,100533.13
2022-12-13T22:15:59.714Z,100536.56
2022-12-13T22:19:02.304Z,100528.78
2022-12-13T22:22:06.420Z,100514.91
2022-12-13T22:25:09.849Z,100503.63
2022-12-13T22:28:12.434Z,100512.28
2022-12-13T22:31:15.136Z,100507.13
2022-12-13T22:34:18.033Z,100508.81
2022-12-13T22:37:22.669Z,100509.72
2022-12-13T22:40:25.245Z,100510.59
2022-12-13T22:43:27.912Z,100508.84
2022-12-13T22:46:30.511Z,100512.31
2022-12-13T22:49:33.105Z,100513.19
2022-12-13T22:52:37.172Z,100503.66
2022-12-13T22:55:39.766Z,100502.78
2022-12-13T22:58:43.400Z,100507.09
2022-12-13T23:01:47.373Z,100500.13
2022-12-13T23:04:50.251Z,100499.28
2022-12-13T23:07:54.196Z,100491.50
2022-12-13T23:11:17.461Z,100485.44
2022-12-13T23:14:21.742Z,100485.47
2022-12-13T23:17:24.340Z,100478.50
2022-12-13T23:20:26.954Z,100474.19
2022-12-13T23:23:31.716Z,100481.13
2022-12-13T23:26:35.285Z,100478.47
2022-12-13T23:29:38.010Z,100475.88
2022-12-13T23:32:40.635Z,100475.00
2022-12-13T23:35:43.227Z,100474.19
2022-12-13T23:38:47.815Z,100471.56
2022-12-13T23:41:50.601Z,100469.81
2022-12-13T23:44:53.174Z,100465.47
2022-12-13T23:47:55.773Z,100461.13
2022-12-13T23:50:58.368Z,100454.19
2022-12-13T23:54:02.606Z,100449.00
2022-12-13T23:57:05.545Z,100441.19
